createdAt,value
2018-11-11T00:01:50.011Z,12.04
2018-11-11T00:04:18.491Z,12.02
2018-11-11T00:06:47.514Z,11.96
2018-11-11T00:09:16.078Z,12.10
2018-11-11T00:11:44.585Z,12.09
2018-11-11T00:14:13.212Z,12.02
2018-11-11T00:16:41.977Z,12.09
2018-11-11T00:19:10.611Z,12.12
2018-11-11T00:21:39.190Z,12.05
2018-11-11T00:24:08.438Z,12.08
2018-11-11T00:26:36.908Z,12.11
2018-11-11T00:29:06.337Z,12.13
2018-11-11T00:31:35.953Z,12.26
2018-11-11T00:34:05.250Z,12.24
2018-11-11T00:36:33.767Z,12.15
2018-11-11T00:39:03.485Z,12.08
2018-11-11T00:41:32.108Z,11.91
2018-11-11T00:44:00.624Z,11.86
2018-11-11T00:46:29.137Z,12.19
2018-11-11T00:48:57.600Z,12.12
2018-11-11T00:51:26.141Z,12.10
2018-11-11T00:53:54.655Z,12.08
2018-11-11T00:56:23.183Z,12.10
2018-11-11T00:58:51.631Z,12.21
2018-11-11T01:01:20.202Z,12.25
2018-11-11T01:03:48.626Z,12.08
2018-11-11T01:06:17.088Z,12.05
2018-11-11T01:08:45.616Z,11.97
2018-11-11T01:11:14.124Z,11.89
2018-11-11T01:13:42.738Z,11.90
2018-11-11T01:16:11.254Z,12.05
2018-11-11T01:18:39.740Z,12.09
2018-11-11T01:21:08.252Z,12.04
2018-11-11T01:23:36.700Z,11.98
2018-11-11T01:26:05.207Z,12.04
2018-11-11T01:28:33.693Z,12.09
2018-11-11T01:31:02.285Z,12.08
2018-11-11T01:33:31.761Z,12.10
2018-11-11T01:36:01.288Z,12.03
2018-11-11T01:38:30.548Z,12.02
2018-11-11T01:40:59.009Z,11.99
2018-11-11T01:43:27.493Z,11.93
2018-11-11T01:45:56.016Z,12.00
2018-11-11T01:48:24.476Z,11.98
2018-11-11T01:50:52.978Z,11.92
2018-11-11T01:53:22.434Z,11.78
2018-11-11T01:55:50.996Z,11.75
2018-11-11T01:58:19.477Z,11.71
2018-11-11T02:00:47.914Z,11.70
2018-11-11T02:03:16.331Z,11.54
2018-11-11T02:05:44.781Z,11.58
2018-11-11T02:08:13.244Z,11.57
2018-11-11T02:10:41.789Z,11.41
2018-11-11T02:13:10.264Z,11.38
2018-11-11T02:15:38.752Z,11.44
2018-11-11T02:18:07.218Z,11.51
2018-11-11T02:20:35.647Z,11.32
2018-11-11T02:23:04.118Z,11.49
2018-11-11T02:25:32.591Z,11.44
2018-11-11T02:28:01.092Z,11.52
2018-11-11T02:30:29.522Z,11.49
2018-11-11T02:32:58.034Z,11.43
2018-11-11T02:35:26.510Z,11.44
2018-11-11T02:37:54.998Z,11.50
2018-11-11T02:40:23.443Z,11.47
2018-11-11T02:42:51.853Z,11.65
2018-11-11T02:45:20.847Z,11.56
2018-11-11T02:47:49.880Z,11.55
2018-11-11T02:50:19.309Z,11.57
2018-11-11T02:52:48.155Z,11.60
2018-11-11T02:55:17.115Z,11.62
2018-11-11T02:57:46.331Z,11.67
2018-11-11T03:00:15.994Z,11.59
2018-11-11T03:02:45.151Z,11.61
2018-11-11T03:05:14.861Z,11.64
2018-11-11T03:07:43.343Z,11.62
2018-11-11T03:10:12.695Z,11.78
2018-11-11T03:12:41.400Z,11.68
2018-11-11T03:15:10.992Z,11.69
2018-11-11T03:17:39.611Z,11.62
2018-11-11T03:20:08.968Z,11.65
2018-11-11T03:22:37.419Z,11.73
2018-11-11T03:25:07.423Z,11.79
2018-11-11T03:27:35.900Z,11.72
2018-11-11T03:30:04.853Z,11.70
2018-11-11T03:32:33.306Z,11.64
2018-11-11T03:35:01.757Z,11.69
2018-11-11T03:37:30.175Z,11.66
2018-11-11T03:39:58.604Z,11.74
2018-11-11T03:42:27.101Z,11.73
2018-11-11T03:44:55.543Z,11.71
2018-11-11T03:47:24.021Z,11.70
2018-11-11T03:49:52.519Z,11.63
2018-11-11T03:52:20.981Z,11.67
2018-11-11T03:54:49.401Z,11.68
2018-11-11T03:57:17.964Z,11.68
2018-11-11T03:59:46.429Z,11.65
2018-11-11T04:02:14.901Z,11.62
2018-11-11T04:04:43.484Z,11.70
2018-11-11T04:07:11.943Z,11.68
2018-11-11T04:09:40.969Z,11.65
2018-11-11T04:12:09.457Z,11.59
2018-11-11T04:14:37.972Z,11.54
2018-11-11T04:17:06.445Z,11.63
2018-11-11T04:19:34.958Z,11.63
2018-11-11T04:22:08.620Z,11.68
2018-11-11T04:24:37.083Z,11.52
2018-11-11T04:27:05.729Z,11.45
2018-11-11T04:29:34.241Z,11.59
2018-11-11T04:32:02.747Z,11.57
2018-11-11T04:34:31.213Z,11.70
2018-11-11T04:37:00.025Z,11.64
2018-11-11T04:39:28.597Z,11.62
2018-11-11T04:41:57.874Z,11.60
2018-11-11T04:44:26.362Z,11.61
2018-11-11T04:46:55.290Z,11.64
2018-11-11T04:49:24.006Z,11.60
2018-11-11T04:51:52.413Z,11.64
2018-11-11T04:54:25.714Z,11.59
2018-11-11T04:56:54.242Z,11.43
2018-11-11T04:59:22.761Z,11.43
2018-11-11T05:01:51.205Z,11.54
2018-11-11T05:04:19.776Z,11.54
2018-11-11T05:06:48.738Z,11.52
2018-11-11T05:09:17.235Z,11.45
2018-11-11T05:11:45.696Z,11.57
2018-11-11T05:14:14.211Z,11.44
2018-11-11T05:16:42.704Z,11.39
2018-11-11T05:19:11.676Z,11.42
2018-11-11T05:21:40.307Z,11.40
2018-11-11T05:24:08.759Z,11.52
2018-11-11T05:26:38.118Z,11.43
2018-11-11T05:29:06.646Z,11.39
2018-11-11T05:31:35.075Z,11.38
2018-11-11T05:34:03.560Z,11.54
2018-11-11T05:36:32.087Z,11.56
2018-11-11T05:39:00.511Z,11.39
2018-11-11T05:41:29.011Z,11.52
2018-11-11T05:43:57.523Z,11.41
2018-11-11T05:46:27.034Z,11.38
2018-11-11T05:48:55.510Z,11.37
2018-11-11T05:51:23.927Z,11.29
2018-11-11T05:53:52.436Z,11.39
2018-11-11T05:56:20.925Z,11.23
2018-11-11T05:58:50.392Z,11.18
2018-11-11T06:01:18.918Z,11.32
2018-11-11T06:03:47.427Z,11.29
2018-11-11T06:06:15.909Z,11.28
2018-11-11T06:08:44.379Z,11.25
2018-11-11T06:11:12.832Z,11.19
2018-11-11T06:13:41.674Z,11.12
2018-11-11T06:16:10.147Z,11.11
2018-11-11T06:18:38.579Z,11.07
2018-11-11T06:21:07.091Z,10.92
2018-11-11T06:23:35.558Z,11.01
2018-11-11T06:26:04.067Z,10.86
2018-11-11T06:28:32.572Z,10.75
2018-11-11T06:31:01.063Z,10.88
2018-11-11T06:33:29.543Z,10.82
2018-11-11T06:35:58.045Z,10.76
2018-11-11T06:38:26.603Z,10.74
2018-11-11T06:40:55.096Z,10.74
2018-11-11T06:43:23.544Z,10.87
2018-11-11T06:45:52.051Z,10.85
2018-11-11T06:48:20.547Z,10.85
2018-11-11T06:50:49.043Z,10.83
2018-11-11T06:53:18.499Z,10.91
2018-11-11T06:55:46.978Z,10.86
2018-11-11T06:58:15.477Z,10.80
2018-11-11T07:00:44.022Z,10.92
2018-11-11T07:03:23.381Z,10.89
2018-11-11T07:05:52.734Z,10.94
2018-11-11T07:08:21.192Z,10.94
2018-11-11T07:10:49.712Z,10.86
2018-11-11T07:13:18.134Z,10.92
2018-11-11T07:15:46.768Z,10.89
2018-11-11T07:18:15.291Z,10.91
2018-11-11T07:20:43.830Z,10.83
2018-11-11T07:23:12.270Z,10.84
2018-11-11T07:25:40.986Z,10.85
2018-11-11T07:28:09.535Z,10.94
2018-11-11T07:30:38.041Z,11.00
2018-11-11T07:33:06.610Z,10.95
2018-11-11T07:35:35.114Z,11.10
2018-11-11T07:38:03.615Z,11.26
2018-11-11T07:40:32.066Z,11.34
2018-11-11T07:43:00.623Z,11.40
2018-11-11T07:45:29.089Z,11.65
2018-11-11T07:47:57.587Z,11.83
2018-11-11T07:50:26.098Z,11.83
2018-11-11T07:52:54.580Z,11.89
2018-11-11T07:55:23.056Z,11.93
2018-11-11T07:57:51.752Z,12.05
2018-11-11T08:00:20.220Z,11.68
2018-11-11T08:02:48.666Z,11.56
2018-11-11T08:05:17.187Z,11.82
2018-11-11T08:07:45.611Z,12.06
2018-11-11T08:10:25.180Z,11.91
2018-11-11T08:12:53.747Z,11.80
2018-11-11T08:15:25.625Z,11.96
2018-11-11T08:17:55.295Z,11.97
2018-11-11T08:20:23.759Z,12.39
2018-11-11T08:22:52.614Z,12.43
2018-11-11T08:25:21.841Z,12.53
2018-11-11T08:27:50.320Z,12.06
2018-11-11T08:30:18.787Z,12.43
2018-11-11T08:32:47.249Z,12.68
2018-11-11T08:35:15.667Z,12.62
2018-11-11T08:37:45.183Z,12.41
2018-11-11T08:40:13.885Z,12.67
2018-11-11T08:42:42.576Z,12.71
2018-11-11T08:45:13.015Z,13.15
2018-11-11T08:47:42.057Z,13.07
2018-11-11T08:50:11.641Z,13.32
2018-11-11T08:52:40.436Z,12.86
2018-11-11T08:55:08.985Z,12.69
2018-11-11T08:57:37.568Z,12.88
2018-11-11T09:00:10.100Z,13.27
2018-11-11T09:02:38.942Z,13.38
2018-11-11T09:05:07.779Z,13.17
2018-11-11T09:07:36.475Z,13.03
2018-11-11T09:10:05.869Z,13.02
2018-11-11T09:12:34.562Z,13.12
2018-11-11T09:15:03.064Z,13.04
2018-11-11T09:17:31.652Z,13.04
2018-11-11T09:20:00.189Z,13.21
2018-11-11T09:22:29.412Z,13.33
2018-11-11T09:24:58.819Z,13.12
2018-11-11T09:27:27.512Z,13.62
2018-11-11T09:29:56.030Z,13.34
2018-11-11T09:32:24.528Z,13.71
2018-11-11T09:34:52.979Z,13.81
2018-11-11T09:37:21.555Z,13.94
2018-11-11T09:39:49.983Z,14.20
2018-11-11T09:42:18.813Z,14.04
2018-11-11T09:44:48.354Z,14.35
2018-11-11T09:47:16.767Z,14.37
2018-11-11T09:49:45.248Z,14.26
2018-11-11T09:52:13.660Z,14.29
2018-11-11T09:54:42.107Z,14.59
2018-11-11T09:57:10.658Z,14.72
2018-11-11T09:59:41.137Z,14.80
2018-11-11T10:02:09.739Z,14.70
2018-11-11T10:04:44.387Z,15.38
2018-11-11T10:07:18.038Z,15.39
2018-11-11T10:09:56.125Z,15.26
2018-11-11T10:12:33.028Z,15.25
2018-11-11T10:15:05.935Z,15.14
2018-11-11T10:17:39.733Z,15.47
2018-11-11T10:20:14.309Z,15.47
2018-11-11T10:23:47.278Z,15.43
2018-11-11T10:26:22.606Z,15.24
2018-11-11T10:28:56.416Z,15.16
2018-11-11T10:32:28.534Z,15.55
2018-11-11T10:35:03.256Z,15.56
2018-11-11T10:37:43.547Z,15.24
2018-11-11T10:40:16.223Z,15.54
2018-11-11T10:42:49.118Z,15.77
2018-11-11T10:45:21.987Z,15.45
2018-11-11T10:47:58.205Z,15.62
2018-11-11T10:50:30.892Z,15.83
2018-11-11T10:52:59.845Z,15.56
2018-11-11T10:55:28.395Z,15.86
2018-11-11T10:57:57.407Z,15.57
2018-11-11T11:00:28.016Z,15.58
2018-11-11T11:02:57.718Z,16.01
2018-11-11T11:05:26.195Z,16.08
2018-11-11T11:07:54.988Z,16.07
2018-11-11T11:10:24.625Z,16.15
2018-11-11T11:12:53.563Z,16.42
2018-11-11T11:15:22.049Z,15.76
2018-11-11T11:17:50.995Z,16.12
2018-11-11T11:20:19.448Z,15.85
2018-11-11T11:22:47.941Z,16.38
2018-11-11T11:25:16.486Z,16.21
2018-11-11T11:27:45.157Z,16.73
2018-11-11T11:30:14.539Z,16.01
2018-11-11T11:32:43.043Z,16.24
2018-11-11T11:35:13.019Z,16.90
2018-11-11T11:37:41.575Z,17.07
2018-11-11T11:40:10.980Z,16.96
2018-11-11T11:42:40.107Z,17.32
2018-11-11T11:45:09.948Z,16.92
2018-11-11T11:47:38.452Z,16.87
2018-11-11T11:50:08.589Z,16.23
2018-11-11T11:52:37.252Z,15.98
2018-11-11T11:55:06.161Z,16.31
2018-11-11T11:57:34.734Z,15.94
2018-11-11T12:00:03.252Z,16.25
2018-11-11T12:02:34.279Z,16.24
2018-11-11T12:05:02.811Z,16.09
2018-11-11T12:07:31.327Z,15.86
2018-11-11T12:09:59.851Z,16.09
2018-11-11T12:12:28.631Z,15.88
2018-11-11T12:14:57.080Z,16.07
2018-11-11T12:17:25.608Z,15.93
2018-11-11T12:19:54.064Z,16.18
2018-11-11T12:22:23.207Z,16.08
2018-11-11T12:24:51.641Z,15.97
2018-11-11T12:27:20.075Z,15.60
2018-11-11T12:29:48.565Z,15.51
2018-11-11T12:32:16.998Z,15.72
2018-11-11T12:34:45.475Z,15.63
2018-11-11T12:37:13.944Z,15.77
2018-11-11T12:39:42.610Z,15.79
2018-11-11T12:42:10.988Z,16.02
2018-11-11T12:44:39.466Z,16.17
2018-11-11T12:47:07.935Z,16.40
2018-11-11T12:49:36.378Z,16.55
2018-11-11T12:52:04.879Z,16.22
2018-11-11T12:54:33.360Z,16.33
2018-11-11T12:57:03.834Z,16.22
2018-11-11T12:59:32.318Z,16.21
2018-11-11T13:02:01.496Z,16.13
2018-11-11T13:04:29.963Z,16.36
2018-11-11T13:06:58.611Z,16.55
2018-11-11T13:09:27.076Z,16.50
2018-11-11T13:11:55.655Z,16.59
2018-11-11T13:14:24.202Z,16.24
2018-11-11T13:16:53.446Z,16.15
2018-11-11T13:19:21.968Z,16.00
2018-11-11T13:21:50.833Z,16.21
2018-11-11T13:24:20.352Z,15.90
2018-11-11T13:26:48.799Z,15.92
2018-11-11T13:29:17.259Z,15.93
2018-11-11T13:31:45.780Z,15.85
2018-11-11T13:34:14.238Z,15.85
2018-11-11T13:36:42.759Z,15.73
2018-11-11T13:39:13.055Z,15.85
2018-11-11T13:41:42.219Z,15.94
2018-11-11T13:44:10.642Z,15.77
2018-11-11T13:46:39.493Z,15.99
2018-11-11T13:49:08.065Z,16.04
2018-11-11T13:51:37.605Z,15.99
2018-11-11T13:54:06.528Z,15.79
2018-11-11T13:56:35.081Z,15.80
2018-11-11T13:59:03.634Z,15.70
2018-11-11T14:01:32.732Z,15.72
2018-11-11T14:04:01.184Z,15.80
2018-11-11T14:06:29.634Z,15.86
2018-11-11T14:08:58.109Z,15.85
2018-11-11T14:11:26.598Z,15.66
2018-11-11T14:13:55.358Z,15.68
2018-11-11T14:16:23.827Z,15.69
2018-11-11T14:18:53.401Z,15.59
2018-11-11T14:21:21.811Z,15.44
2018-11-11T14:23:50.262Z,15.39
2018-11-11T14:26:18.828Z,15.43
2018-11-11T14:28:47.732Z,15.46
2018-11-11T14:31:16.196Z,15.27
2018-11-11T14:33:44.684Z,15.24
2018-11-11T14:36:13.220Z,15.07
2018-11-11T14:38:42.551Z,15.18
2018-11-11T14:41:11.053Z,15.06
2018-11-11T14:43:39.567Z,15.07
2018-11-11T14:46:08.100Z,15.07
2018-11-11T14:48:37.231Z,15.19
2018-11-11T14:51:06.115Z,15.12
2018-11-11T14:53:34.650Z,15.10
2018-11-11T14:56:03.195Z,14.94
2018-11-11T14:58:31.928Z,14.77
2018-11-11T15:01:00.323Z,14.72
2018-11-11T15:03:28.926Z,14.68
2018-11-11T15:05:57.383Z,14.82
2018-11-11T15:08:25.775Z,14.81
2018-11-11T15:10:54.273Z,14.71
2018-11-11T15:13:22.748Z,14.73
2018-11-11T15:15:51.431Z,14.55
2018-11-11T15:18:19.937Z,14.61
2018-11-11T15:20:48.574Z,14.57
2018-11-11T15:23:16.971Z,14.53
2018-11-11T15:25:45.475Z,14.51
2018-11-11T15:28:13.919Z,14.41
2018-11-11T15:30:42.525Z,14.31
2018-11-11T15:33:10.934Z,14.28
2018-11-11T15:35:39.341Z,14.42
2018-11-11T15:38:07.794Z,14.22
2018-11-11T15:40:37.491Z,14.18
2018-11-11T15:43:06.828Z,13.88
2018-11-11T15:45:35.852Z,13.80
2018-11-11T15:48:05.846Z,13.91
2018-11-11T15:50:35.117Z,13.82
2018-11-11T15:53:06.839Z,13.61
2018-11-11T15:55:36.491Z,13.47
2018-11-11T15:58:05.550Z,13.38
2018-11-11T16:00:35.545Z,13.47
2018-11-11T16:03:04.108Z,13.51
2018-11-11T16:05:32.553Z,13.41
2018-11-11T16:08:01.640Z,13.31
2018-11-11T16:10:31.131Z,13.22
2018-11-11T16:12:59.567Z,13.15
2018-11-11T16:15:33.790Z,13.08
2018-11-11T16:18:04.771Z,12.24
2018-11-11T16:20:33.859Z,13.01
2018-11-11T16:23:03.214Z,12.82
2018-11-11T16:25:31.942Z,12.80
2018-11-11T16:28:00.516Z,12.66
2018-11-11T16:30:30.333Z,12.44
2018-11-11T16:32:59.425Z,12.37
2018-11-11T16:35:28.643Z,12.28
2018-11-11T16:37:57.617Z,12.40
2018-11-11T16:40:27.420Z,12.47
2018-11-11T16:42:56.131Z,12.51
2018-11-11T16:45:25.895Z,12.35
2018-11-11T16:47:54.591Z,12.49
2018-11-11T16:50:26.587Z,12.15
2018-11-11T16:52:55.956Z,12.01
2018-11-11T16:55:25.805Z,12.01
2018-11-11T16:57:54.990Z,11.90
2018-11-11T17:00:25.627Z,11.79
2018-11-11T17:02:55.429Z,11.64
2018-11-11T17:05:25.911Z,11.58
2018-11-11T17:07:55.666Z,11.58
2018-11-11T17:10:27.110Z,11.43
2018-11-11T17:12:56.715Z,11.50
2018-11-11T17:15:26.929Z,11.35
2018-11-11T17:17:56.259Z,11.41
2018-11-11T17:20:26.598Z,11.34
2018-11-11T17:22:57.040Z,11.17
2018-11-11T17:25:27.047Z,11.29
2018-11-11T17:27:56.353Z,11.22
2018-11-11T17:30:27.683Z,11.13
2018-11-11T17:32:57.520Z,11.16
2018-11-11T17:35:26.935Z,11.11
2018-11-11T17:37:56.276Z,11.01
2018-11-11T17:40:27.802Z,10.94
2018-11-11T17:43:02.985Z,10.87
2018-11-11T17:45:31.473Z,10.79
2018-11-11T17:48:00.992Z,10.81
2018-11-11T17:50:30.646Z,10.74
2018-11-11T17:53:00.077Z,10.56
2018-11-11T17:55:29.461Z,10.73
2018-11-11T17:57:57.814Z,10.60
2018-11-11T18:00:27.317Z,10.37
2018-11-11T18:02:59.013Z,10.41
2018-11-11T18:05:28.615Z,10.47
2018-11-11T18:07:57.198Z,10.66
2018-11-11T18:10:26.099Z,10.42
2018-11-11T18:12:56.498Z,10.43
2018-11-11T18:15:27.412Z,10.40
2018-11-11T18:17:56.152Z,10.39
2018-11-11T18:20:27.078Z,10.33
2018-11-11T18:22:56.299Z,10.60
2018-11-11T18:25:24.791Z,10.33
2018-11-11T18:27:55.943Z,10.48
2018-11-11T18:30:27.079Z,10.51
2018-11-11T18:32:55.566Z,10.45
2018-11-11T18:35:24.079Z,10.53
2018-11-11T18:37:52.719Z,10.76
2018-11-11T18:40:23.762Z,10.52
2018-11-11T18:42:52.984Z,10.36
2018-11-11T18:45:22.911Z,10.44
2018-11-11T18:47:51.834Z,10.51
2018-11-11T18:50:25.764Z,10.59
2018-11-11T18:52:54.249Z,10.64
2018-11-11T18:55:22.755Z,10.75
2018-11-11T18:57:51.305Z,10.90
2018-11-11T19:00:21.223Z,10.88
2018-11-11T19:02:51.220Z,10.98
2018-11-11T19:05:20.520Z,10.93
2018-11-11T19:07:49.335Z,11.08
2018-11-11T19:10:19.316Z,10.99
2018-11-11T19:12:48.623Z,10.97
2018-11-11T19:15:18.088Z,11.15
2018-11-11T19:17:47.361Z,11.14
2018-11-11T19:20:16.993Z,10.93
2018-11-11T19:22:45.450Z,10.96
2018-11-11T19:25:16.745Z,10.79
2018-11-11T19:27:46.546Z,10.61
2018-11-11T19:30:15.995Z,10.68
2018-11-11T19:32:45.056Z,10.70
2018-11-11T19:35:14.489Z,10.67
2018-11-11T19:37:43.673Z,10.78
2018-11-11T19:40:19.503Z,10.93
2018-11-11T19:42:49.283Z,10.94
2018-11-11T19:45:19.995Z,11.05
2018-11-11T19:47:48.848Z,11.09
2018-11-11T19:50:18.963Z,10.99
2018-11-11T19:52:48.592Z,11.10
2018-11-11T19:55:17.907Z,11.03
2018-11-11T19:57:46.328Z,10.97
2018-11-11T20:00:17.075Z,11.10
2018-11-11T20:02:46.811Z,11.21
2018-11-11T20:05:15.933Z,11.42
2018-11-11T20:07:46.452Z,11.65
2018-11-11T20:10:16.050Z,11.61
2018-11-11T20:12:45.809Z,11.64
2018-11-11T20:15:16.733Z,11.74
2018-11-11T20:17:47.539Z,11.79
2018-11-11T20:20:25.088Z,11.95
2018-11-11T20:22:53.538Z,11.95
2018-11-11T20:25:22.365Z,11.95
2018-11-11T20:27:50.921Z,12.13
2018-11-11T20:30:22.920Z,12.15
2018-11-11T20:32:51.503Z,12.13
2018-11-11T20:35:21.291Z,12.07
2018-11-11T20:37:49.804Z,12.16
2018-11-11T20:40:19.787Z,10.68
2018-11-11T20:42:48.812Z,12.10
2018-11-11T20:45:18.658Z,12.47
2018-11-11T20:47:47.858Z,12.47
2018-11-11T20:50:17.663Z,12.45
2018-11-11T20:52:47.711Z,12.50
2018-11-11T20:55:17.024Z,12.07
2018-11-11T20:57:45.476Z,12.29
2018-11-11T21:00:18.889Z,11.97
2018-11-11T21:02:47.381Z,12.10
2018-11-11T21:05:17.239Z,12.16
2018-11-11T21:07:45.932Z,12.20
2018-11-11T21:10:15.564Z,12.20
2018-11-11T21:12:44.148Z,12.04
2018-11-11T21:15:14.400Z,12.14
2018-11-11T21:17:43.364Z,12.05
2018-11-11T21:20:12.963Z,12.06
2018-11-11T21:22:41.742Z,12.06
2018-11-11T21:25:10.384Z,12.08
2018-11-11T21:27:39.558Z,11.94
2018-11-11T21:30:10.540Z,11.96
2018-11-11T21:32:39.008Z,11.99
2018-11-11T21:35:07.727Z,12.10
2018-11-11T21:37:36.293Z,12.04
2018-11-11T21:40:05.311Z,12.06
2018-11-11T21:42:34.571Z,12.02
2018-11-11T21:45:03.046Z,11.95
2018-11-11T21:47:31.524Z,11.91
2018-11-11T21:50:00.634Z,11.81
2018-11-11T21:52:29.116Z,11.82
2018-11-11T21:54:57.664Z,11.79
2018-11-11T21:57:26.224Z,11.64
2018-11-11T21:59:54.667Z,11.52
2018-11-11T22:02:23.247Z,11.60
2018-11-11T22:04:51.721Z,11.64
2018-11-11T22:07:20.151Z,11.71
2018-11-11T22:09:48.673Z,11.71
2018-11-11T22:12:17.164Z,11.67
2018-11-11T22:14:45.659Z,11.69
2018-11-11T22:17:14.144Z,11.70
2018-11-11T22:19:42.704Z,11.67
2018-11-11T22:22:11.194Z,11.64
2018-11-11T22:24:39.668Z,11.62
2018-11-11T22:27:08.162Z,11.65
2018-11-11T22:29:36.657Z,11.65
2018-11-11T22:32:05.451Z,11.79
2018-11-11T22:34:33.933Z,11.72
2018-11-11T22:37:02.441Z,11.55
2018-11-11T22:39:30.915Z,11.41
2018-11-11T22:41:59.359Z,11.41
2018-11-11T22:44:27.824Z,11.44
2018-11-11T22:46:56.672Z,11.43
2018-11-11T22:49:25.177Z,11.49
2018-11-11T22:51:53.598Z,11.52
2018-11-11T22:54:22.165Z,11.55
2018-11-11T22:56:51.140Z,11.54
2018-11-11T22:59:19.639Z,11.41
2018-11-11T23:01:48.101Z,11.35
2018-11-11T23:04:16.638Z,11.31
2018-11-11T23:06:46.541Z,11.28
2018-11-11T23:09:15.181Z,11.21
2018-11-11T23:11:43.721Z,11.07
2018-11-11T23:14:12.212Z,11.11
2018-11-11T23:16:40.828Z,11.02
2018-11-11T23:19:09.316Z,11.01
2018-11-11T23:21:37.830Z,10.94
2018-11-11T23:24:06.875Z,10.82
2018-11-11T23:26:37.658Z,10.77
2018-11-11T23:29:07.224Z,10.75
2018-11-11T23:31:35.672Z,10.71
2018-11-11T23:34:04.230Z,10.65
2018-11-11T23:36:34.099Z,10.59
2018-11-11T23:39:02.593Z,10.52
2018-11-11T23:41:31.513Z,10.46
2018-11-11T23:44:00.077Z,10.28
2018-11-11T23:46:28.491Z,10.19
2018-11-11T23:48:56.945Z,9.96
2018-11-11T23:51:25.442Z,9.99
2018-11-11T23:53:53.918Z,9.94
2018-11-11T23:56:22.389Z,9.87
2018-11-11T23:58:50.831Z,9.90
